createdAt,value
2023-01-17T00:00:11.914Z,5.29
2023-01-17T00:02:39.306Z,5.28
2023-01-17T00:05:25.799Z,5.31
2023-01-17T00:08:11.666Z,5.32
2023-01-17T00:10:43.355Z,5.22
2023-01-17T00:13:10.845Z,5.29
2023-01-17T00:15:40.012Z,5.35
2023-01-17T00:18:07.397Z,5.35
2023-01-17T00:20:53.332Z,5.28
2023-01-17T00:23:42.329Z,5.30
2023-01-17T00:26:14.303Z,5.41
2023-01-17T00:28:43.275Z,5.28
2023-01-17T00:31:12.418Z,5.38
2023-01-17T00:33:39.797Z,5.27
2023-01-17T00:36:08.084Z,5.25
2023-01-17T00:38:39.883Z,5.36
2023-01-17T00:41:10.201Z,5.35
2023-01-17T00:43:56.984Z,5.33
2023-01-17T00:46:43.020Z,5.36
2023-01-17T00:49:28.999Z,5.35
2023-01-17T00:52:15.131Z,5.28
2023-01-17T00:55:01.024Z,5.24
2023-01-17T00:57:46.978Z,5.25
2023-01-17T01:00:33.479Z,5.31
2023-01-17T01:03:19.135Z,5.33
2023-01-17T01:06:05.135Z,5.24
2023-01-17T01:08:51.118Z,5.22
2023-01-17T01:11:39.275Z,5.22
2023-01-17T01:14:28.703Z,5.25
2023-01-17T01:17:14.740Z,5.39
2023-01-17T01:20:00.682Z,5.22
2023-01-17T01:22:46.762Z,5.27
2023-01-17T01:25:32.670Z,5.29
2023-01-17T01:28:28.490Z,5.15
2023-01-17T01:31:15.045Z,5.31
2023-01-17T01:33:42.388Z,5.14
2023-01-17T01:36:10.231Z,5.15
2023-01-17T01:38:37.711Z,5.23
2023-01-17T01:41:05.992Z,5.43
2023-01-17T01:43:48.518Z,5.36
2023-01-17T01:46:24.670Z,5.27
2023-01-17T01:48:59.163Z,5.20
2023-01-17T01:51:32.518Z,5.36
2023-01-17T01:54:07.667Z,5.30
2023-01-17T01:56:36.378Z,5.26
2023-01-17T01:59:08.065Z,5.19
2023-01-17T02:01:36.170Z,5.13
2023-01-17T02:04:09.745Z,4.79
2023-01-17T02:06:42.017Z,4.94
2023-01-17T02:09:12.655Z,5.10
2023-01-17T02:11:41.559Z,4.94
2023-01-17T02:14:14.435Z,5.06
2023-01-17T02:17:06.327Z,4.98
2023-01-17T02:19:42.633Z,4.97
2023-01-17T02:22:41.244Z,4.94
2023-01-17T02:25:40.214Z,5.00
2023-01-17T02:28:21.507Z,5.01
2023-01-17T02:30:56.333Z,5.05
2023-01-17T02:33:32.749Z,4.99
2023-01-17T02:36:05.871Z,4.93
2023-01-17T02:39:00.392Z,5.01
2023-01-17T02:41:35.639Z,4.96
2023-01-17T02:44:04.098Z,5.03
2023-01-17T02:46:31.402Z,4.93
2023-01-17T02:49:00.406Z,4.98
2023-01-17T02:51:41.332Z,4.99
2023-01-17T02:54:28.413Z,4.86
2023-01-17T02:57:36.657Z,4.98
2023-01-17T03:00:10.806Z,5.01
2023-01-17T03:02:54.971Z,4.90
2023-01-17T03:05:26.114Z,5.02
2023-01-17T03:07:54.423Z,5.04
2023-01-17T03:10:22.607Z,4.92
2023-01-17T03:12:50.911Z,4.91
2023-01-17T03:15:18.323Z,4.85
2023-01-17T03:17:49.677Z,4.79
2023-01-17T03:20:17.328Z,4.73
2023-01-17T03:22:44.649Z,4.79
2023-01-17T03:25:11.956Z,4.75
2023-01-17T03:27:40.711Z,4.68
2023-01-17T03:30:08.885Z,4.61
2023-01-17T03:32:36.248Z,4.63
2023-01-17T03:35:03.857Z,4.64
2023-01-17T03:37:31.252Z,4.61
2023-01-17T03:39:58.579Z,4.58
2023-01-17T03:42:25.912Z,4.46
2023-01-17T03:44:53.225Z,4.50
2023-01-17T03:47:20.603Z,4.59
2023-01-17T03:49:47.880Z,4.58
2023-01-17T03:52:15.307Z,4.55
2023-01-17T03:54:42.655Z,4.58
2023-01-17T03:57:11.992Z,4.55
2023-01-17T03:59:39.334Z,4.55
2023-01-17T04:02:06.824Z,4.39
2023-01-17T04:04:34.205Z,4.44
2023-01-17T04:07:01.576Z,4.31
2023-01-17T04:09:33.952Z,4.26
2023-01-17T04:12:02.522Z,4.31
2023-01-17T04:14:29.974Z,4.32
2023-01-17T04:16:57.654Z,4.39
2023-01-17T04:19:25.036Z,4.37
2023-01-17T04:21:52.378Z,4.41
2023-01-17T04:24:19.682Z,4.40
2023-01-17T04:26:55.887Z,4.54
2023-01-17T04:29:23.202Z,4.42
2023-01-17T04:31:50.725Z,4.48
2023-01-17T04:34:18.081Z,4.41
2023-01-17T04:36:45.423Z,4.44
2023-01-17T04:39:12.849Z,4.48
2023-01-17T04:41:40.178Z,4.52
2023-01-17T04:44:07.457Z,4.52
2023-01-17T04:46:35.737Z,4.59
2023-01-17T04:49:03.320Z,4.67
2023-01-17T04:51:30.798Z,4.62
2023-01-17T04:53:58.219Z,4.51
2023-01-17T04:56:25.698Z,4.49
2023-01-17T04:58:53.112Z,4.43
2023-01-17T05:01:20.741Z,4.48
2023-01-17T05:03:48.286Z,4.51
2023-01-17T05:06:15.998Z,4.60
2023-01-17T05:08:43.474Z,4.54
2023-01-17T05:11:11.040Z,4.52
2023-01-17T05:13:38.496Z,4.49
2023-01-17T05:16:06.234Z,4.63
2023-01-17T05:18:33.881Z,4.64
2023-01-17T05:21:02.815Z,4.68
2023-01-17T05:23:30.284Z,4.66
2023-01-17T05:25:58.121Z,4.60
2023-01-17T05:28:25.940Z,4.50
2023-01-17T05:30:53.584Z,4.38
2023-01-17T05:33:21.238Z,4.53
2023-01-17T05:35:48.785Z,4.44
2023-01-17T05:38:16.217Z,4.49
2023-01-17T05:40:43.728Z,4.67
2023-01-17T05:43:11.294Z,4.52
2023-01-17T05:45:38.837Z,4.40
2023-01-17T05:48:06.762Z,4.32
2023-01-17T05:50:37.265Z,4.28
2023-01-17T05:53:06.036Z,4.34
2023-01-17T05:55:34.517Z,4.38
2023-01-17T05:58:02.605Z,4.43
2023-01-17T06:00:30.701Z,4.34
2023-01-17T06:02:59.993Z,4.21
2023-01-17T06:05:28.462Z,4.29
2023-01-17T06:07:56.672Z,4.32
2023-01-17T06:10:25.372Z,4.29
2023-01-17T06:13:08.092Z,4.18
2023-01-17T06:15:37.593Z,4.19
2023-01-17T06:18:16.283Z,4.15
2023-01-17T06:20:44.467Z,4.17
2023-01-17T06:23:14.125Z,4.23
2023-01-17T06:25:44.345Z,4.21
2023-01-17T06:28:14.417Z,4.11
2023-01-17T06:30:42.502Z,4.18
2023-01-17T06:33:10.253Z,4.13
2023-01-17T06:35:41.128Z,4.09
2023-01-17T06:38:10.034Z,4.06
2023-01-17T06:40:37.467Z,4.18
2023-01-17T06:43:05.416Z,4.10
2023-01-17T06:45:35.523Z,4.03
2023-01-17T06:48:05.253Z,4.04
2023-01-17T06:50:33.942Z,4.06
2023-01-17T06:53:04.489Z,4.06
2023-01-17T06:55:33.912Z,4.21
2023-01-17T06:58:03.014Z,4.18
2023-01-17T07:00:31.947Z,4.19
2023-01-17T07:02:59.665Z,4.12
2023-01-17T07:05:28.508Z,4.12
2023-01-17T07:07:56.116Z,4.05
2023-01-17T07:10:23.697Z,3.97
2023-01-17T07:12:51.723Z,3.98
2023-01-17T07:15:19.581Z,3.99
2023-01-17T07:17:47.214Z,3.81
2023-01-17T07:20:14.706Z,3.92
2023-01-17T07:22:45.364Z,4.03
2023-01-17T07:25:12.938Z,4.11
2023-01-17T07:27:40.412Z,4.12
2023-01-17T07:30:09.126Z,4.14
2023-01-17T07:32:37.325Z,4.05
2023-01-17T07:35:05.942Z,3.97
2023-01-17T07:37:33.447Z,3.98
2023-01-17T07:40:02.593Z,4.03
2023-01-17T07:42:30.171Z,3.93
2023-01-17T07:44:57.774Z,4.05
2023-01-17T07:47:25.336Z,4.02
2023-01-17T07:49:52.820Z,3.95
2023-01-17T07:52:20.463Z,3.95
2023-01-17T07:54:48.671Z,4.04
2023-01-17T07:57:16.361Z,4.16
2023-01-17T07:59:43.834Z,4.04
2023-01-17T08:02:20.227Z,4.20
2023-01-17T08:04:48.792Z,4.33
2023-01-17T08:07:16.398Z,4.33
2023-01-17T08:09:44.444Z,4.27
2023-01-17T08:12:11.918Z,4.39
2023-01-17T08:14:39.305Z,4.41
2023-01-17T08:17:10.498Z,4.41
2023-01-17T08:19:37.891Z,4.52
2023-01-17T08:22:05.449Z,4.49
2023-01-17T08:24:32.948Z,4.64
2023-01-17T08:27:00.541Z,4.76
2023-01-17T08:29:29.543Z,4.87
2023-01-17T08:31:56.983Z,4.90
2023-01-17T08:34:24.376Z,4.92
2023-01-17T08:36:53.870Z,4.88
2023-01-17T08:39:21.867Z,4.92
2023-01-17T08:41:49.386Z,4.91
2023-01-17T08:44:16.799Z,4.97
2023-01-17T08:46:44.309Z,5.00
2023-01-17T08:49:12.531Z,5.06
2023-01-17T08:51:40.342Z,5.06
2023-01-17T08:54:09.797Z,5.10
2023-01-17T08:56:37.307Z,5.06
2023-01-17T08:59:04.620Z,5.07
2023-01-17T09:01:40.822Z,5.06
2023-01-17T09:04:09.257Z,5.02
2023-01-17T09:06:42.191Z,4.99
2023-01-17T09:09:11.259Z,5.02
2023-01-17T09:11:38.967Z,4.91
2023-01-17T09:14:06.393Z,5.01
2023-01-17T09:16:33.936Z,4.93
2023-01-17T09:19:01.307Z,5.02
2023-01-17T09:21:28.636Z,5.02
2023-01-17T09:23:56.284Z,5.08
2023-01-17T09:26:29.860Z,5.13
2023-01-17T09:28:58.762Z,5.10
2023-01-17T09:31:27.383Z,5.04
2023-01-17T09:33:55.946Z,4.98
2023-01-17T09:36:24.063Z,5.08
2023-01-17T09:38:57.344Z,4.99
2023-01-17T09:41:28.674Z,4.86
2023-01-17T09:44:25.043Z,5.00
2023-01-17T09:46:55.762Z,4.91
2023-01-17T09:49:38.462Z,4.93
2023-01-17T09:52:09.897Z,4.91
2023-01-17T09:54:40.895Z,4.85
2023-01-17T09:57:39.370Z,5.12
2023-01-17T10:00:36.457Z,5.03
2023-01-17T10:03:18.479Z,5.08
2023-01-17T10:06:26.480Z,5.12
2023-01-17T10:09:20.620Z,5.14
2023-01-17T10:12:01.608Z,5.18
2023-01-17T10:15:07.248Z,5.11
2023-01-17T10:17:50.886Z,5.17
2023-01-17T10:20:37.443Z,5.24
2023-01-17T10:23:32.053Z,5.22
2023-01-17T10:26:11.202Z,5.17
2023-01-17T10:28:47.073Z,5.26
2023-01-17T10:31:19.143Z,5.21
2023-01-17T10:33:52.871Z,5.19
2023-01-17T10:36:25.074Z,5.12
2023-01-17T10:38:57.212Z,5.10
2023-01-17T10:41:30.797Z,5.19
2023-01-17T10:44:12.013Z,5.10
2023-01-17T10:46:45.914Z,5.12
2023-01-17T10:49:24.195Z,5.13
2023-01-17T10:52:30.031Z,5.17
2023-01-17T10:55:35.529Z,5.25
2023-01-17T10:58:03.470Z,5.08
2023-01-17T11:00:49.769Z,5.09
2023-01-17T11:03:22.044Z,5.14
2023-01-17T11:06:16.679Z,5.31
2023-01-17T11:08:50.840Z,5.11
2023-01-17T11:11:19.983Z,4.91
2023-01-17T11:13:50.120Z,5.02
2023-01-17T11:16:25.101Z,4.84
2023-01-17T11:19:15.337Z,4.97
2023-01-17T11:21:56.046Z,5.12
2023-01-17T11:24:30.163Z,5.05
2023-01-17T11:26:58.157Z,4.97
2023-01-17T11:29:35.838Z,4.90
2023-01-17T11:32:22.067Z,4.80
2023-01-17T11:35:15.473Z,4.80
2023-01-17T11:37:51.576Z,4.88
2023-01-17T11:40:27.632Z,4.76
2023-01-17T11:43:04.803Z,4.83
2023-01-17T11:45:34.447Z,5.02
2023-01-17T11:48:07.860Z,4.92
2023-01-17T11:50:38.761Z,4.90
2023-01-17T11:53:15.345Z,4.77
2023-01-17T11:56:05.180Z,4.80
2023-01-17T11:58:35.905Z,4.92
2023-01-17T12:01:44.088Z,4.81
2023-01-17T12:04:24.828Z,4.93
2023-01-17T12:06:58.670Z,4.93
2023-01-17T12:10:02.212Z,4.94
2023-01-17T12:12:56.834Z,5.11
2023-01-17T12:16:21.786Z,5.20
2023-01-17T12:18:56.313Z,5.19
2023-01-17T12:21:48.534Z,5.27
2023-01-17T12:24:34.572Z,5.31
2023-01-17T12:28:01.241Z,5.36
2023-01-17T12:30:53.083Z,5.30
2023-01-17T12:33:45.741Z,5.35
2023-01-17T12:36:39.848Z,5.55
2023-01-17T12:39:11.785Z,5.55
2023-01-17T12:41:50.674Z,5.62
2023-01-17T12:44:23.771Z,5.58
2023-01-17T12:47:00.966Z,5.62
2023-01-17T12:49:50.522Z,5.69
2023-01-17T12:52:42.555Z,5.81
2023-01-17T12:55:33.174Z,5.82
2023-01-17T12:58:05.140Z,5.79
2023-01-17T13:00:33.052Z,5.81
2023-01-17T13:03:16.692Z,5.77
2023-01-17T13:05:47.107Z,5.84
2023-01-17T13:08:32.782Z,5.69
2023-01-17T13:11:18.183Z,5.62
2023-01-17T13:13:47.349Z,5.68
2023-01-17T13:16:17.998Z,5.63
2023-01-17T13:18:50.713Z,5.49
2023-01-17T13:21:35.311Z,5.45
2023-01-17T13:24:15.302Z,5.56
2023-01-17T13:27:24.669Z,5.42
2023-01-17T13:30:19.111Z,5.50
2023-01-17T13:33:24.277Z,5.20
2023-01-17T13:35:59.634Z,5.33
2023-01-17T13:38:34.222Z,5.35
2023-01-17T13:41:12.678Z,5.38
2023-01-17T13:44:06.328Z,5.38
2023-01-17T13:46:58.755Z,5.31
2023-01-17T13:49:29.130Z,5.41
2023-01-17T13:52:07.560Z,5.35
2023-01-17T13:54:43.890Z,5.46
2023-01-17T13:57:23.495Z,5.35
2023-01-17T13:59:51.133Z,5.39
2023-01-17T14:02:33.768Z,5.46
2023-01-17T14:05:10.260Z,5.45
2023-01-17T14:07:57.851Z,5.49
2023-01-17T14:10:38.815Z,5.54
2023-01-17T14:13:25.096Z,5.66
2023-01-17T14:15:52.789Z,5.67
2023-01-17T14:18:36.767Z,5.57
2023-01-17T14:21:21.384Z,5.54
2023-01-17T14:24:10.454Z,5.55
2023-01-17T14:26:53.015Z,5.56
2023-01-17T14:29:49.747Z,5.60
2023-01-17T14:32:31.444Z,5.58
2023-01-17T14:34:59.237Z,5.59
2023-01-17T14:37:30.317Z,5.52
2023-01-17T14:39:58.182Z,5.66
2023-01-17T14:42:29.228Z,5.70
2023-01-17T14:45:09.096Z,5.71
2023-01-17T14:47:39.504Z,5.59
2023-01-17T14:50:26.837Z,5.60
2023-01-17T14:53:15.773Z,5.55
2023-01-17T14:55:49.325Z,5.53
2023-01-17T14:58:22.667Z,5.51
2023-01-17T15:01:11.786Z,5.58
2023-01-17T15:03:46.458Z,5.59
2023-01-17T15:06:21.134Z,5.68
2023-01-17T15:08:50.022Z,5.61
2023-01-17T15:11:22.721Z,5.61
2023-01-17T15:13:53.381Z,5.57
2023-01-17T15:16:38.308Z,5.61
2023-01-17T15:19:15.224Z,5.56
2023-01-17T15:21:45.413Z,5.45
2023-01-17T15:24:15.699Z,5.41
2023-01-17T15:26:43.765Z,5.36
2023-01-17T15:29:23.864Z,5.33
2023-01-17T15:31:58.108Z,5.25
2023-01-17T15:34:37.725Z,5.23
2023-01-17T15:37:24.163Z,5.36
2023-01-17T15:39:51.714Z,5.39
2023-01-17T15:42:31.297Z,5.30
2023-01-17T15:45:05.226Z,5.20
2023-01-17T15:47:38.163Z,5.16
2023-01-17T15:50:27.911Z,5.19
2023-01-17T15:52:56.996Z,5.13
2023-01-17T15:55:36.480Z,5.14
2023-01-17T15:58:21.307Z,5.31
2023-01-17T16:00:49.100Z,5.29
2023-01-17T16:03:19.700Z,5.19
2023-01-17T16:05:47.584Z,5.18
2023-01-17T16:08:26.251Z,5.16
2023-01-17T16:10:56.759Z,5.21
2023-01-17T16:13:24.198Z,5.09
2023-01-17T16:15:51.649Z,5.19
2023-01-17T16:18:25.980Z,5.14
2023-01-17T16:21:01.315Z,5.22
2023-01-17T16:23:28.707Z,5.33
2023-01-17T16:25:56.171Z,5.32
2023-01-17T16:28:23.796Z,5.20
2023-01-17T16:30:54.083Z,5.32
2023-01-17T16:33:21.576Z,5.17
2023-01-17T16:35:51.199Z,5.24
2023-01-17T16:38:19.921Z,5.10
2023-01-17T16:40:47.913Z,5.07
2023-01-17T16:43:18.692Z,5.22
2023-01-17T16:45:50.553Z,5.04
2023-01-17T16:48:19.366Z,5.06
2023-01-17T16:50:53.243Z,5.17
2023-01-17T16:53:27.043Z,5.03
2023-01-17T16:55:57.660Z,5.08
2023-01-17T16:58:25.465Z,5.02
2023-01-17T17:00:55.259Z,5.01
2023-01-17T17:03:23.072Z,5.05
2023-01-17T17:05:58.470Z,5.01
2023-01-17T17:08:28.745Z,5.05
2023-01-17T17:11:13.112Z,5.06
2023-01-17T17:13:48.959Z,5.14
2023-01-17T17:16:21.568Z,4.92
2023-01-17T17:19:04.560Z,5.06
2023-01-17T17:21:34.008Z,4.90
2023-01-17T17:24:02.173Z,4.96
2023-01-17T17:26:37.506Z,5.00
2023-01-17T17:29:07.089Z,4.86
2023-01-17T17:31:34.465Z,4.99
2023-01-17T17:34:03.379Z,4.95
2023-01-17T17:36:31.275Z,5.01
2023-01-17T17:38:59.040Z,5.04
2023-01-17T17:41:29.097Z,5.00
2023-01-17T17:43:57.037Z,4.91
2023-01-17T17:46:27.220Z,5.05
2023-01-17T17:48:56.523Z,4.96
2023-01-17T17:51:29.698Z,5.18
2023-01-17T17:54:03.503Z,5.12
2023-01-17T17:56:32.269Z,5.12
2023-01-17T17:59:01.097Z,5.06
2023-01-17T18:01:28.755Z,5.12
2023-01-17T18:04:01.045Z,4.99
2023-01-17T18:06:28.430Z,5.03
2023-01-17T18:08:56.051Z,4.92
2023-01-17T18:11:26.168Z,4.77
2023-01-17T18:13:55.551Z,4.77
2023-01-17T18:16:36.111Z,4.76
2023-01-17T18:19:05.269Z,4.78
2023-01-17T18:21:35.969Z,4.73
2023-01-17T18:24:11.393Z,4.73
2023-01-17T18:26:46.839Z,4.85
2023-01-17T18:29:16.271Z,4.87
2023-01-17T18:31:45.224Z,5.01
2023-01-17T18:34:21.176Z,4.87
2023-01-17T18:36:48.552Z,4.94
2023-01-17T18:39:29.900Z,4.85
2023-01-17T18:41:57.972Z,4.78
2023-01-17T18:44:27.316Z,4.85
2023-01-17T18:46:55.297Z,4.91
2023-01-17T18:49:22.767Z,4.80
2023-01-17T18:51:51.253Z,4.76
2023-01-17T18:54:20.253Z,4.72
2023-01-17T18:56:48.214Z,4.76
2023-01-17T18:59:18.410Z,4.80
2023-01-17T19:01:46.733Z,4.73
2023-01-17T19:04:15.909Z,4.67
2023-01-17T19:06:45.004Z,4.71
2023-01-17T19:09:14.495Z,4.70
2023-01-17T19:11:44.541Z,4.70
2023-01-17T19:14:13.019Z,4.84
2023-01-17T19:16:42.103Z,4.77
2023-01-17T19:19:13.823Z,4.80
2023-01-17T19:21:41.356Z,4.84
2023-01-17T19:24:13.240Z,4.70
2023-01-17T19:26:41.927Z,4.63
2023-01-17T19:29:09.296Z,4.71
2023-01-17T19:31:43.172Z,4.80
2023-01-17T19:34:13.910Z,4.76
2023-01-17T19:36:41.715Z,4.73
2023-01-17T19:39:11.930Z,4.58
2023-01-17T19:41:44.931Z,4.58
2023-01-17T19:44:13.776Z,4.60
2023-01-17T19:46:41.180Z,4.64
2023-01-17T19:49:08.959Z,4.59
2023-01-17T19:51:36.825Z,4.55
2023-01-17T19:54:06.467Z,4.66
2023-01-17T19:56:34.136Z,4.66
2023-01-17T19:59:02.196Z,4.75
2023-01-17T20:01:32.393Z,4.68
2023-01-17T20:04:02.019Z,4.65
2023-01-17T20:06:34.555Z,4.60
2023-01-17T20:09:03.292Z,4.54
2023-01-17T20:11:30.781Z,4.59
2023-01-17T20:13:59.115Z,4.72
2023-01-17T20:16:28.769Z,4.67
2023-01-17T20:18:58.481Z,4.64
2023-01-17T20:21:27.885Z,4.64
2023-01-17T20:23:57.816Z,4.66
2023-01-17T20:26:31.224Z,4.68
2023-01-17T20:28:58.686Z,4.59
2023-01-17T20:31:26.870Z,4.58
2023-01-17T20:33:55.788Z,4.55
2023-01-17T20:36:26.583Z,4.67
2023-01-17T20:38:54.480Z,4.57
2023-01-17T20:41:24.244Z,4.52
2023-01-17T20:43:54.858Z,4.47
2023-01-17T20:46:24.835Z,4.47
2023-01-17T20:48:55.009Z,4.52
2023-01-17T20:51:24.617Z,4.52
2023-01-17T20:53:56.067Z,4.61
2023-01-17T20:56:24.554Z,4.61
2023-01-17T20:58:56.101Z,4.55
2023-01-17T21:01:23.611Z,4.63
2023-01-17T21:03:54.011Z,4.60
2023-01-17T21:06:23.152Z,4.51
2023-01-17T21:08:51.794Z,4.60
2023-01-17T21:11:22.351Z,4.53
2023-01-17T21:13:51.281Z,4.47
2023-01-17T21:16:21.163Z,4.44
2023-01-17T21:18:50.338Z,4.40
2023-01-17T21:21:22.707Z,4.36
2023-01-17T21:23:51.955Z,4.40
2023-01-17T21:26:20.347Z,4.54
2023-01-17T21:28:49.269Z,4.47
2023-01-17T21:31:27.884Z,4.51
2023-01-17T21:34:01.566Z,4.51
2023-01-17T21:36:33.077Z,4.54
2023-01-17T21:39:04.769Z,4.60
2023-01-17T21:41:34.862Z,4.55
2023-01-17T21:44:05.388Z,4.56
2023-01-17T21:46:36.361Z,4.47
2023-01-17T21:49:03.666Z,4.57
2023-01-17T21:51:49.632Z,4.57
2023-01-17T21:54:17.001Z,4.49
2023-01-17T21:57:03.013Z,4.54
2023-01-17T21:59:33.336Z,4.49
2023-01-17T22:02:00.707Z,4.59
2023-01-17T22:04:29.525Z,4.59
2023-01-17T22:06:56.880Z,4.37
2023-01-17T22:09:24.255Z,4.36
2023-01-17T22:11:51.719Z,4.40
2023-01-17T22:14:19.617Z,4.39
2023-01-17T22:16:47.025Z,4.38
2023-01-17T22:19:14.519Z,4.40
2023-01-17T22:21:43.854Z,4.49
2023-01-17T22:24:16.657Z,4.57
2023-01-17T22:26:44.049Z,4.51
2023-01-17T22:29:11.468Z,4.34
2023-01-17T22:31:38.840Z,4.36
2023-01-17T22:34:06.121Z,4.31
2023-01-17T22:36:34.144Z,4.34
2023-01-17T22:39:01.477Z,4.20
2023-01-17T22:41:29.857Z,4.29
2023-01-17T22:43:58.912Z,4.40
2023-01-17T22:46:28.430Z,4.36
2023-01-17T22:48:56.925Z,4.46
2023-01-17T22:51:26.487Z,4.27
2023-01-17T22:53:56.591Z,4.31
2023-01-17T22:56:30.084Z,4.26
2023-01-17T22:59:00.943Z,4.24
2023-01-17T23:01:30.683Z,4.29
2023-01-17T23:06:45.290Z,4.57
2023-01-17T23:09:14.793Z,4.28
2023-01-17T23:11:54.071Z,4.18
2023-01-17T23:14:24.396Z,4.22
2023-01-17T23:17:11.201Z,4.32
2023-01-17T23:19:41.027Z,4.38
2023-01-17T23:22:16.362Z,4.45
2023-01-17T23:24:49.335Z,4.35
2023-01-17T23:27:40.036Z,4.35
2023-01-17T23:30:11.947Z,4.39
2023-01-17T23:32:40.507Z,4.32
2023-01-17T23:35:08.025Z,4.26
2023-01-17T23:37:54.619Z,4.29
2023-01-17T23:40:22.471Z,4.26
2023-01-17T23:43:08.325Z,4.30
2023-01-17T23:45:37.650Z,4.29
2023-01-17T23:48:09.465Z,4.08
2023-01-17T23:50:37.807Z,4.25
2023-01-17T23:53:08.184Z,4.41
2023-01-17T23:55:37.543Z,4.48
2023-01-17T23:58:10.546Z,4.50
